Date,TemperatureHighF,TemperatureAvgF,TemperatureLowF,DewpointHighF,DewpointAvgF,DewpointLowF,HumidityHigh,HumidityAvg,HumidityLow,PressureMaxIn,PressureMinIn,WindSpeedMaxMPH,WindSpeedAvgMPH,GustSpeedMaxMPH,PrecipitationSumIn
2013-1-1,47,41,35,26,15,4,67,35,20,0.00,40.00,34,11,52,0.00
2013-1-2,54,46,40,17,7,-3,27,20,11,0.00,40.00,37,15,53,0.00
2013-1-3,58,48,40,11,4,-3,25,16,8,0.00,40.00,18,7,34,0.00
2013-1-4,55,46,39,16,5,-5,32,19,11,0.00,40.00,9,6,11,0.00
2013-1-5,57,47,39,23,11,-1,44,23,13,0.00,40.00,9,5,12,0.00
2013-1-6,43,38,33,39,27,6,99,71,22,0.00,40.00,10,5,20,0.00
2013-1-7,51,43,35,36,26,11,99,56,20,0.00,40.00,15,6,25,0.00
2013-1-8,62,54,44,30,19,6,42,26,17,0.00,40.00,8,5,11,0.00
2013-1-9,64,54,47,42,29,20,79,39,25,0.00,40.00,10,6,14,0.00
2013-1-10,52,37,30,39,33,20,99,89,30,0.00,40.00,14,8,29,0.00
2013-1-11,37,31,26,28,20,13,89,65,40,0.00,40.00,9,4,18,0.00
2013-1-12,41,33,27,28,17,7,95,56,27,0.00,40.00,10,4,16,0.00
2013-1-13,41,34,28,25,16,8,70,48,31,0.00,40.00,15,5,23,0.00
2013-1-14,39,34,27,14,1,-12,56,27,11,0.00,40.00,15,7,28,0.00
2013-1-15,51,42,29,17,10,-4,41,26,20,0.00,40.00,29,11,42,0.00
2013-1-16,58,50,41,22,16,13,34,26,20,0.00,40.00,40,14,56,0.00
2013-1-17,64,57,52,20,14,10,22,18,15,0.00,40.00,41,19,58,0.00
2013-1-18,67,59,51,21,14,7,25,17,12,0.00,40.00,21,6,31,0.00
2013-1-19,66,57,49,15,9,5,23,15,11,0.00,40.00,14,6,23,0.00
2013-1-20,66,57,50,16,7,2,19,14,9,0.00,40.00,10,6,21,0.00
2013-1-21,68,60,51,15,2,-7,17,9,6,0.00,40.00,22,10,35,0.00
2013-1-22,73,60,51,28,8,-7,30,13,6,0.00,40.00,10,6,15,0.00
2013-1-23,69,62,55,37,29,20,47,30,18,0.00,40.00,13,6,24,0.00
2013-1-24,60,55,50,51,44,31,88,69,40,0.00,40.00,11,5,18,0.00
2013-1-25,60,55,51,52,48,44,96,79,55,0.00,40.00,14,5,22,0.00
2013-1-26,52,49,47,50,48,44,98,97,77,0.00,40.00,6,3,12,0.00
2013-1-27,47,42,35,46,41,34,99,97,92,0.00,40.00,10,6,19,0.00
2013-1-28,40,36,34,35,31,23,99,83,50,0.00,40.00,12,5,20,0.00
2013-1-29,55,40,33,40,31,21,98,71,47,0.00,40.00,14,3,28,0.00
2013-1-30,58,51,43,41,32,22,78,49,29,0.00,40.00,25,9,43,0.00
2013-1-31,63,57,51,30,24,16,34,27,17,0.00,40.00,28,14,46,0.00
2013-2-1,65,57,50,39,24,16,55,29,18,0.00,40.00,9,6,12,0.00
2013-2-2,68,60,54,39,27,12,48,30,17,0.00,40.00,8,4,11,0.00
2013-2-3,59,54,48,43,38,29,76,56,32,0.00,40.00,7,4,14,0.00
2013-2-4,61,53,47,46,38,29,74,56,38,0.00,40.00,7,5,11,0.00
2013-2-5,60,53,43,47,33,26,97,48,29,0.00,40.00,8,5,13,0.00
2013-2-6,53,46,35,42,34,21,98,65,31,0.00,40.00,8,4,15,0.00
2013-2-7,59,48,38,45,32,16,99,59,20,0.00,40.00,11,6,13,0.00
2013-2-8,37,34,31,37,33,31,100,99,97,0.00,40.00,11,6,28,0.00
2013-2-9,39,33,30,35,32,30,100,95,80,0.00,40.00,8,4,14,0.00
2013-2-10,38,34,32,35,32,27,99,90,72,0.00,40.00,6,3,12,0.00
2013-2-11,44,37,31,34,25,0,96,66,19,0.00,40.00,10,4,18,0.00
2013-2-12,49,41,34,25,12,2,58,30,19,0.00,40.00,10,5,19,0.00
2013-2-13,56,47,39,34,17,6,61,32,18,0.00,40.00,7,4,14,0.00
2013-2-14,61,54,46,24,21,15,38,27,21,0.00,40.00,25,11,42,0.00
2013-2-15,60,56,52,18,12,1,25,17,9,0.00,40.00,36,24,55,0.00
2013-2-16,69,59,50,22,8,-2,30,14,6,0.00,40.00,37,19,54,0.00
2013-2-17,57,50,44,41,18,10,68,29,17,0.00,40.00,10,6,15,0.00
2013-2-18,58,47,34,41,26,9,99,50,19,0.00,40.00,8,4,12,0.00
2013-2-19,37,35,32,37,34,32,100,97,88,0.00,40.00,10,6,28,0.00
2013-2-20,37,32,29,33,31,24,100,97,63,0.00,40.00,14,5,27,0.00
2013-2-21,40,36,29,36,30,15,98,81,35,0.00,40.00,9,4,21,0.00
2013-2-22,51,41,33,31,21,8,69,46,20,0.00,40.00,8,5,14,0.00
2013-2-23,52,44,36,35,25,13,75,48,28,0.00,40.00,10,5,15,0.00
2013-2-24,49,43,35,30,7,-5,70,28,12,0.00,40.00,29,12,43,0.00
2013-2-25,56,45,37,19,8,-5,44,22,11,0.00,40.00,8,5,16,0.00
2013-2-26,58,51,41,12,6,-7,27,16,8,0.00,40.00,20,11,34,0.00
2013-2-27,58,52,47,9,3,-2,16,13,11,0.00,40.00,23,13,36,0.00
2013-2-28,63,56,51,11,5,-1,14,12,11,0.00,40.00,30,17,47,0.00
2013-3-1,66,61,57,15,12,7,17,14,12,0.00,40.00,32,22,53,0.00
2013-3-2,73,63,53,25,17,8,31,18,11,0.00,40.00,9,5,14,0.00
2013-3-3,63,55,45,39,22,12,61,30,17,0.00,40.00,8,5,17,0.00
2013-3-4,57,49,40,44,39,27,98,70,32,0.00,40.00,8,4,13,0.00
2013-3-5,60,52,42,48,38,25,98,61,29,0.00,40.00,12,4,18,0.00
2013-3-6,51,43,38,41,39,36,99,87,63,0.00,40.00,8,3,16,0.00
2013-3-7,45,42,39,43,38,30,98,86,66,0.00,40.00,12,4,18,0.00
2013-3-8,41,35,32,39,35,32,100,98,86,0.00,40.00,13,5,23,0.00
2013-3-9,43,38,35,40,37,33,99,97,77,0.00,40.00,9,5,23,0.00
2013-3-10,59,50,39,39,29,16,89,46,21,0.00,40.00,17,6,28,0.00
2013-3-11,66,56,46,37,25,10,54,32,14,0.00,40.00,10,6,13,0.00
2013-3-12,72,62,52,40,23,8,48,24,11,0.00,40.00,21,9,38,0.00
2013-3-13,77,69,59,40,25,16,41,20,11,0.00,40.00,19,8,30,0.00
2013-3-14,81,70,62,43,27,17,33,21,12,0.00,40.00,17,7,28,0.00
2013-3-15,75,67,56,44,33,14,56,29,18,0.00,40.00,8,5,12,0.00
2013-3-16,67,60,53,46,24,5,69,27,11,0.00,40.00,8,5,13,0.00
2013-3-17,63,58,51,49,33,19,86,41,22,0.00,40.00,9,4,13,0.00
2013-3-18,61,55,49,47,32,11,87,44,15,0.00,40.00,9,4,13,0.00
2013-3-19,64,57,48,47,33,21,79,42,26,0.00,40.00,9,5,19,0.00
2013-3-20,65,58,48,47,36,28,63,44,32,0.00,40.00,9,5,17,0.00
2013-3-21,61,54,45,47,40,32,91,61,42,0.00,40.00,7,4,12,0.00
2013-3-22,61,50,38,49,41,23,98,74,34,0.00,40.00,7,4,15,0.00
2013-3-23,65,57,46,48,28,0,77,37,10,0.00,40.00,9,5,17,0.00
2013-3-24,66,57,49,45,37,26,70,48,24,0.00,40.00,8,5,15,0.00
2013-3-25,70,60,51,46,35,28,63,40,23,0.00,40.00,10,6,15,0.00
2013-3-26,64,57,50,40,26,1,59,31,12,0.00,40.00,10,6,14,0.00
2013-3-27,62,54,49,43,29,9,76,39,18,0.00,40.00,7,4,15,0.00
2013-3-28,66,58,51,45,37,23,65,46,30,0.00,40.00,9,5,18,0.00
2013-3-29,68,60,51,51,39,24,95,48,25,0.00,40.00,8,4,11,0.00
2013-3-30,65,58,49,49,39,-100,86,55,20,0.00,40.00,8,4,17,0.00
2013-3-31,59,51,45,47,40,21,97,68,32,0.00,40.00,10,5,19,0.00
2013-4-1,55,46,42,45,42,36,98,84,58,0.00,40.00,11,5,20,0.00
2013-4-2,61,51,43,49,44,36,98,78,51,0.00,40.00,7,5,13,0.00
2013-4-3,73,62,51,50,35,26,65,37,20,0.00,40.00,9,5,16,0.00
2013-4-4,67,60,53,44,34,20,70,40,20,0.00,40.00,10,5,18,0.00
2013-4-5,60,52,47,50,45,35,97,77,57,0.00,40.00,9,5,18,0.00
2013-4-6,62,52,42,50,45,35,98,79,56,0.00,40.00,7,3,13,0.00
2013-4-7,61,55,48,50,44,29,98,66,33,0.00,40.00,8,4,17,0.00
2013-4-8,50,42,39,46,41,35,99,95,84,0.00,40.00,13,7,28,0.00
2013-4-9,56,45,37,40,33,21,97,66,30,0.00,40.00,9,5,17,0.00
2013-4-10,64,56,50,29,19,12,35,23,13,0.00,40.00,14,7,24,0.00
2013-4-11,68,60,53,46,26,6,74,29,12,0.00,40.00,10,5,15,0.00
2013-4-12,72,60,48,50,35,23,72,40,17,0.00,40.00,10,4,20,0.00
2013-4-13,68,62,51,49,35,23,80,40,21,0.00,40.00,8,5,14,0.00
2013-4-14,55,49,40,46,38,3,98,72,12,0.00,40.00,10,5,16,0.00
2013-4-15,45,43,40,45,42,39,99,98,98,0.00,40.00,9,5,15,0.00
2013-4-16,45,39,34,40,36,33,99,90,67,0.00,40.00,9,5,17,0.00
2013-4-17,58,46,37,37,25,6,96,50,18,0.00,40.00,10,5,21,0.00
2013-4-18,63,54,47,17,8,0,26,16,11,0.00,40.00,24,12,44,0.00
2013-4-19,72,61,50,18,8,0,20,12,9,0.00,40.00,26,11,49,0.00
2013-4-20,78,66,54,31,21,6,35,19,12,0.00,40.00,9,6,17,0.00
2013-4-21,75,67,58,41,29,15,44,24,14,0.00,40.00,9,5,14,0.00
2013-4-22,70,61,53,48,30,16,79,34,17,0.00,40.00,9,5,13,0.00
2013-4-23,72,60,52,49,34,20,77,39,24,0.00,40.00,8,4,12,0.00
2013-4-24,69,52,44,49,43,27,99,78,26,0.00,40.00,8,4,13,0.00
2013-4-25,60,48,42,46,44,42,99,87,56,0.00,40.00,8,4,15,0.00
2013-4-26,71,60,47,48,39,14,89,51,13,0.00,40.00,8,4,13,0.00
2013-4-27,75,70,62,50,28,11,54,22,11,0.00,40.00,8,6,15,0.00
2013-4-28,78,73,65,49,27,15,48,19,12,0.00,40.00,10,6,18,0.00
2013-4-29,76,70,63,48,30,13,44,24,12,0.00,40.00,7,4,12,0.00
2013-4-30,69,61,47,51,38,2,98,51,9,0.00,40.00,10,5,13,0.00
2013-5-1,77,61,43,48,32,1,98,51,7,0.00,40.00,18,8,33,0.00
2013-5-2,76,70,64,7,0,-8,8,6,4,0.00,40.00,29,18,51,0.00
2013-5-3,80,71,64,25,9,-2,16,9,6,0.00,40.00,21,9,36,0.00
2013-5-4,71,62,52,47,21,6,57,24,9,0.00,40.00,9,5,13,0.00
2013-5-5,55,50,45,48,37,16,98,67,21,0.00,40.00,12,6,18,0.00
2013-5-6,50,47,45,50,46,44,99,98,94,0.00,40.00,11,6,20,0.00
2013-5-7,49,46,43,46,44,41,99,95,79,0.00,40.00,10,5,22,0.00
2013-5-8,53,47,42,47,44,36,98,89,73,0.00,40.00,7,3,12,0.00
2013-5-9,59,49,45,52,46,40,98,91,54,0.00,40.00,10,4,18,0.00
2013-5-10,71,60,47,52,43,-100,98,58,29,0.00,40.00,10,5,17,0.00
2013-5-11,82,73,64,45,34,-100,48,26,15,0.00,40.00,11,6,24,0.00
2013-5-12,85,77,67,39,31,26,29,19,12,0.00,40.00,10,6,18,0.00
2013-5-13,86,79,69,42,33,25,32,19,14,0.00,40.00,10,6,19,0.00
2013-5-14,82,72,58,45,30,11,47,23,9,0.00,40.00,8,5,14,0.00
2013-5-15,71,64,56,49,33,15,65,32,18,0.00,40.00,9,6,14,0.00
2013-5-16,70,58,50,50,25,-100,89,49,32,0.00,40.00,11,5,14,0.00
2013-5-17,63,55,47,51,42,-100,98,72,40,0.00,40.00,7,4,15,0.00
2013-5-18,65,55,47,50,47,43,98,78,51,0.00,40.00,7,4,14,0.00
2013-5-19,71,61,50,52,47,37,81,61,45,0.00,40.00,7,4,14,0.00
2013-5-20,79,71,58,52,37,24,70,32,15,0.00,40.00,14,6,25,0.00
2013-5-21,77,70,60,52,39,24,68,34,20,0.00,40.00,11,6,14,0.00
2013-5-22,71,62,46,50,34,21,93,38,20,0.00,40.00,12,6,20,0.00
2013-5-23,63,54,41,47,34,1,97,52,12,0.00,40.00,7,4,14,0.00
2013-5-24,66,56,42,45,31,-7,97,43,9,0.00,40.00,11,4,13,0.00
2013-5-25,65,58,50,48,24,-9,78,32,7,0.00,40.00,11,6,14,0.00
2013-5-26,65,57,49,45,29,3,71,37,13,0.00,40.00,8,5,16,0.00
2013-5-27,68,58,51,50,40,26,84,52,33,0.00,40.00,7,4,14,0.00
2013-5-28,65,58,51,53,46,39,97,67,48,0.00,40.00,9,4,17,0.00
2013-5-29,75,66,57,52,44,32,66,45,33,0.00,40.00,8,4,15,0.00
2013-5-30,75,68,60,51,43,19,65,42,17,0.00,40.00,8,4,14,0.00
2013-5-31,79,70,61,53,42,25,61,37,20,0.00,40.00,8,4,13,0.00
2013-6-1,90,80,71,56,37,23,46,24,9,0.00,40.00,18,8,29,0.00
2013-6-2,80,74,64,54,37,19,70,29,14,0.00,40.00,11,6,14,0.00
2013-6-3,73,67,57,53,38,14,78,37,13,0.00,40.00,11,5,15,0.00
2013-6-4,73,64,57,52,33,-1,75,35,7,0.00,40.00,9,4,13,0.00
2013-6-5,77,68,60,53,30,5,70,29,9,0.00,40.00,7,4,14,0.00
2013-6-6,77,69,62,54,42,15,71,39,13,0.00,40.00,7,4,13,0.00
2013-6-7,78,72,63,54,41,17,60,34,13,0.00,40.00,7,4,12,0.00
2013-6-8,81,74,66,54,42,23,61,34,12,0.00,40.00,8,4,12,0.00
2013-6-9,78,74,67,51,28,1,49,22,6,0.00,40.00,10,5,13,0.00
2013-6-10,76,72,62,50,35,9,63,30,9,0.00,40.00,13,7,21,0.00
2013-6-11,86,75,67,54,29,12,57,21,8,0.00,40.00,10,5,13,0.00
2013-6-12,78,71,65,54,44,18,61,40,15,0.00,40.00,8,5,11,0.00
2013-6-13,78,71,61,52,36,3,60,31,8,0.00,40.00,8,5,14,0.00
2013-6-14,77,72,63,48,32,-5,51,26,5,0.00,40.00,8,5,13,0.00
2013-6-15,75,70,61,49,25,-18,61,24,3,0.00,40.00,11,5,14,0.00
2013-6-16,77,69,59,49,28,-11,59,26,5,0.00,40.00,8,5,12,0.00
2013-6-17,79,72,63,49,37,20,52,28,17,0.00,40.00,7,4,17,0.00
2013-6-18,77,71,62,51,37,18,60,31,13,0.00,40.00,8,5,14,0.00
2013-6-19,77,70,59,48,30,5,59,26,9,0.00,40.00,8,5,15,0.00
2013-6-20,77,69,61,44,30,8,52,23,11,0.00,40.00,6,4,13,0.00
2013-6-21,75,72,70,45,41,35,37,33,23,0.00,40.00,7,6,14,0.00
2013-6-22,77,72,62,48,39,23,56,32,18,0.00,40.00,7,4,15,0.00
2013-6-23,72,66,58,51,41,30,70,41,25,0.00,40.00,9,5,15,0.00
2013-6-24,69,64,57,53,45,28,84,52,27,0.00,40.00,8,5,16,0.00
2013-6-25,76,66,56,56,50,41,80,59,38,0.00,40.00,7,4,14,0.00
2013-6-26,84,78,67,54,52,49,57,40,32,0.00,40.00,6,5,14,0.00
2013-6-27,88,80,70,52,50,46,51,36,28,0.00,40.00,7,5,15,0.00
2013-6-28,90,85,75,49,46,35,36,26,19,0.00,40.00,8,5,16,0.00
2013-6-29,95,91,81,48,41,32,26,18,12,0.00,40.00,9,6,15,0.00
2013-6-30,96,89,82,55,44,30,35,22,12,0.00,40.00,10,4,12,0.00
2013-7-1,89,83,78,54,46,40,42,28,21,0.00,40.00,9,5,14,0.00
2013-7-2,88,83,77,57,45,36,43,28,18,0.00,40.00,9,5,16,0.00
2013-7-3,87,82,75,51,43,35,42,26,20,0.00,40.00,8,6,13,0.00
2013-7-4,87,82,73,54,43,32,49,27,17,0.00,40.00,9,5,16,0.00
2013-7-5,84,78,72,56,47,37,56,34,20,0.00,40.00,7,5,15,0.00
2013-7-6,83,75,69,58,52,46,67,46,34,0.00,40.00,7,4,14,0.00
2013-7-7,87,81,69,53,47,35,56,31,20,0.00,40.00,8,5,15,0.00
2013-7-8,91,87,82,46,39,31,25,19,15,0.00,40.00,8,5,15,0.00
2013-7-9,89,84,74,55,45,29,46,28,12,0.00,40.00,7,4,13,0.00
2013-7-10,80,72,67,56,48,-100,65,46,31,0.00,40.00,5,2,10,0.00
2013-7-11,74,69,65,60,55,44,77,62,38,0.00,40.00,5,3,11,0.00
2013-7-12,80,72,64,59,56,52,78,57,44,0.00,40.00,7,4,14,0.00
2013-7-13,82,76,67,54,50,42,58,41,31,0.00,40.00,8,4,14,0.00
2013-7-14,86,78,71,53,47,40,51,33,24,0.00,40.00,7,4,14,0.00
2013-7-15,83,77,71,48,43,35,38,30,22,0.00,40.00,9,5,17,0.00
2013-7-16,83,77,67,42,30,20,29,19,11,0.00,40.00,7,5,13,0.00
2013-7-17,85,78,67,41,24,4,32,15,6,0.00,40.00,7,5,14,0.00
2013-7-18,86,79,71,47,40,27,37,25,17,0.00,40.00,7,4,13,0.00
2013-7-19,87,82,73,54,38,18,50,24,9,0.00,40.00,6,4,12,0.00
2013-7-20,80,74,71,59,51,-100,59,47,12,0.00,40.00,7,3,9,0.00
2013-7-21,76,70,64,66,59,51,96,69,48,0.00,40.00,11,3,24,0.00
2013-7-22,75,69,64,66,62,58,92,79,59,0.00,40.00,6,3,14,0.00
2013-7-23,80,71,65,61,59,51,86,66,48,0.00,40.00,7,4,15,0.00
2013-7-24,82,75,68,58,56,50,67,52,41,0.00,40.00,10,4,19,0.00
2013-7-25,84,79,72,55,50,43,48,37,29,0.00,40.00,7,4,13,0.00
2013-7-26,83,76,73,56,51,46,51,42,31,0.00,40.00,6,3,11,0.00
2013-7-27,81,75,70,54,49,44,55,40,32,0.00,40.00,7,4,13,0.00
2013-7-28,80,74,67,51,39,25,53,29,15,0.00,40.00,8,5,16,0.00
2013-7-29,79,72,65,52,43,35,57,37,26,0.00,40.00,7,5,15,0.00
2013-7-30,78,71,63,54,48,36,64,44,32,0.00,40.00,7,4,13,0.00
2013-7-31,79,71,64,55,50,44,67,48,33,0.00,40.00,6,4,15,0.00
2013-8-1,82,74,62,51,42,-3,64,37,4,0.00,40.00,10,5,18,0.00
2013-8-2,79,75,67,51,39,15,54,30,11,0.00,40.00,7,5,14,0.00
2013-8-3,78,73,65,51,39,12,58,32,12,0.00,40.00,7,4,14,0.00
2013-8-17,88,74,74,50,31,-100,36,25,24,0.00,40.00,6,5,13,0.00
2013-8-18,89,84,76,50,47,42,30,28,24,0.00,40.00,12,6,21,0.00
2013-8-19,83,52,73,52,-2,-100,42,30,27,0.00,40.00,5,4,10,0.00
2013-8-20,86,76,71,51,27,-100,50,22,6,0.00,40.00,8,5,14,0.00
2013-8-21,89,80,74,43,34,24,26,19,13,0.00,40.00,7,5,15,0.00
2013-8-22,88,84,77,46,40,34,34,21,18,0.00,40.00,8,6,18,0.00
2013-8-23,88,83,77,44,40,39,28,22,18,0.00,40.00,7,5,16,0.00
2013-11-13,79,73,66,29,26,22,25,17,14,0.00,40.00,15,7,26,0.00
2013-11-14,76,72,69,30,22,18,20,16,13,0.00,40.00,13,9,23,0.00
2013-11-15,57,50,46,47,42,29,96,82,34,0.00,40.00,9,6,14,0.00
2013-11-16,46,36,43,44,14,-100,99,75,91,0.00,40.00,7,4,9,0.00
2013-11-17,55,46,41,45,40,37,88,78,62,0.00,40.00,5,3,10,0.00
2013-11-18,56,50,43,47,44,40,100,82,68,0.00,40.00,6,4,10,0.00
2013-11-19,50,47,45,47,46,43,100,95,80,0.00,40.00,5,4,8,0.00
2013-12-26,58,57,55,3,2,1,11,11,10,0.00,40.00,30,25,45,0.00
2013-12-27,65,64,62,13,8,3,13,11,9,0.00,40.00,26,14,39,0.00
2013-12-28,60,46,56,13,-11,-100,18,13,15,0.00,40.00,7,5,9,0.00
2013-12-30,52,51,50,-9,-10,-10,8,8,7,0.00,40.00,7,6,9,0.00
2013-12-31,64,58,53,14,7,-4,21,14,9,0.00,40.00,7,4,8,0.00
2014-1-1,66,61,53,13,10,7,15,13,11,0.00,40.00,17,6,31,0.00